Terminal Aerodrome Forecast
Issued by NWS Missoula, MT

Home | Current Version | Previous Version | Text Only | Print | Product List | Glossary On
Versions: 1 2 3 4 5 6 7 8 9 10 11 12 13 14 15 16
939
FTUS45 KMSO 232320
TAFGPI
TAF
KGPI 232320Z 2400/2424 23006KT P6SM OVC050
     FM240300 21007KT 6SM -SN BKN050 OVC070
     FM240900 17006KT 2SM -SN OVC025
     FM241600 VRB04KT 6SM -SN OVC035
     FM242000 VRB06KT P6SM OVC040=

USA.gov is the U.S. government's official web portal to all federal, state and local government web resources and services.